Time;durP1;ratioP1;P1;durP2;ratioP2;P2;SDS_P1;SDS_P2;PMS_P1;PMS_P2;Temp;Humidity;BMP_temperature;BMP_pressure;BME280_temperature;BME280_humidity;BME280_pressure;Samples;Min_cycle;Max_cycle;Signal;HPM_P1;HPM_P2
2022/04/27 00:01:15;;;;;;;10.32;9.20;;;4.60;99.90;;;;;;5044461;28;20048;-52
2022/04/27 00:03:41;;;;;;;15.70;10.57;;;4.60;99.90;;;;;;5034178;28;20102;-52
2022/04/27 00:06:09;;;;;;;11.85;10.20;;;4.60;99.90;;;;;;5023827;28;20041;-53
2022/04/27 00:08:35;;;;;;;17.45;9.85;;;4.60;99.90;;;;;;5043923;28;20080;-51
2022/04/27 00:11:02;;;;;;;11.25;9.68;;;4.60;99.90;;;;;;5039538;28;20053;-52
2022/04/27 00:13:28;;;;;;;12.35;9.77;;;4.50;99.90;;;;;;5043113;28;20060;-53
2022/04/27 00:15:54;;;;;;;11.65;10.45;;;4.40;99.90;;;;;;5029904;28;20060;-52
2022/04/27 00:18:20;;;;;;;12.90;11.40;;;4.30;99.90;;;;;;5043686;28;20268;-53
2022/04/27 00:20:46;;;;;;;12.32;11.00;;;4.20;99.90;;;;;;5041288;28;20704;-54
2022/04/27 00:23:13;;;;;;;14.38;11.82;;;4.10;99.90;;;;;;5037482;28;20539;-51
2022/04/27 00:25:39;;;;;;;18.42;12.18;;;4.00;99.90;;;;;;5036753;28;20128;-53
2022/04/27 00:28:05;;;;;;;14.93;12.70;;;3.90;99.90;;;;;;5043623;28;20059;-53
2022/04/27 00:30:31;;;;;;;19.20;12.93;;;3.80;99.90;;;;;;5038745;28;20467;-53
2022/04/27 00:32:58;;;;;;;15.88;12.98;;;3.80;99.90;;;;;;5040747;28;20045;-53
2022/04/27 00:35:24;;;;;;;14.02;12.38;;;3.70;99.90;;;;;;5035725;28;20049;-50
2022/04/27 00:37:50;;;;;;;17.63;12.73;;;3.80;99.90;;;;;;5027523;28;20045;-51
2022/04/27 00:40:17;;;;;;;17.35;12.63;;;3.80;99.90;;;;;;5026423;28;20063;-51
2022/04/27 00:42:43;;;;;;;13.93;12.45;;;3.80;99.90;;;;;;5040665;28;20077;-53
2022/04/27 00:45:09;;;;;;;16.30;12.27;;;3.70;99.90;;;;;;5006806;28;20774;-54
2022/04/27 00:47:35;;;;;;;15.60;13.38;;;3.70;99.90;;;;;;5044366;28;20476;-54
2022/04/27 00:50:02;;;;;;;17.25;13.88;;;3.60;99.90;;;;;;5043046;28;20262;-53
2022/04/27 00:52:33;;;;;;;16.50;13.85;;;3.60;99.90;;;;;;5041850;28;20045;-53
2022/04/27 00:54:59;;;;;;;19.15;13.95;;;3.70;99.90;;;;;;5045134;28;20072;-52
2022/04/27 00:57:26;;;;;;;14.48;11.55;;;3.60;99.90;;;;;;5011249;28;20044;-51
2022/04/27 00:59:53;;;;;;;14.20;12.40;;;3.60;99.90;;;;;;5025554;28;20114;-53
2022/04/27 01:02:20;;;;;;;16.17;13.52;;;3.60;99.90;;;;;;5024371;28;20067;-52
2022/04/27 01:04:48;;;;;;;16.23;12.75;;;3.60;99.90;;;;;;5041425;28;20123;-52
2022/04/27 01:07:14;;;;;;;17.00;13.07;;;3.60;99.90;;;;;;5025275;28;20102;-54
2022/04/27 01:09:41;;;;;;;14.60;13.00;;;3.60;99.90;;;;;;5042272;28;20122;-54
2022/04/27 01:12:08;;;;;;;17.52;12.30;;;3.70;99.90;;;;;;5043098;28;20452;-52
2022/04/27 01:14:43;;;;;;;18.33;13.82;;;3.70;99.90;;;;;;5023728;28;20049;-52
2022/04/27 01:17:10;;;;;;;14.00;12.18;;;3.60;99.90;;;;;;5020159;28;20160;-53
2022/04/27 01:19:37;;;;;;;15.30;12.25;;;3.70;99.90;;;;;;5041096;28;20084;-50
2022/04/27 01:22:04;;;;;;;18.45;12.73;;;3.80;99.90;;;;;;5026496;28;20851;-53
2022/04/27 01:24:33;;;;;;;18.83;13.45;;;3.70;99.90;;;;;;5019964;28;20067;-51
2022/04/27 01:26:59;;;;;;;16.02;13.65;;;3.70;99.90;;;;;;5024352;28;20057;-52
2022/04/27 01:29:25;;;;;;;20.95;14.18;;;3.60;99.90;;;;;;5042736;28;20048;-53
2022/04/27 01:31:53;;;;;;;15.20;12.57;;;3.60;99.90;;;;;;5021731;28;20571;-52
2022/04/27 01:34:20;;;;;;;17.73;13.85;;;3.70;99.90;;;;;;5042839;28;20053;-54
2022/04/27 01:36:46;;;;;;;18.17;12.35;;;3.60;99.90;;;;;;5041674;28;20051;-49
2022/04/27 01:39:13;;;;;;;15.73;11.90;;;3.60;99.90;;;;;;5043057;28;20144;-49
2022/04/27 01:41:39;;;;;;;18.35;13.70;;;3.60;99.90;;;;;;5041203;28;20692;-50
2022/04/27 01:44:06;;;;;;;16.00;12.20;;;3.50;99.90;;;;;;5039949;28;20053;-52
2022/04/27 01:46:32;;;;;;;18.60;13.68;;;3.50;99.90;;;;;;5040950;28;20175;-51
2022/04/27 01:48:59;;;;;;;16.63;12.75;;;3.50;99.90;;;;;;5042830;28;20570;-48
2022/04/27 01:54:15;;;;;;;17.52;12.35;;;3.50;99.90;;;;;;5028995;28;20057;-52
2022/04/27 01:56:49;;;;;;;15.10;12.60;;;3.50;99.90;;;;;;5038600;28;20102;-56
2022/04/27 01:59:16;;;;;;;17.50;12.52;;;3.50;99.90;;;;;;5042875;28;20053;-55
2022/04/27 02:01:43;;;;;;;13.65;12.25;;;3.50;99.90;;;;;;5040896;28;20131;-55
2022/04/27 02:04:10;;;;;;;14.75;13.15;;;3.50;99.90;;;;;;5042320;28;20063;-56
2022/04/27 02:06:37;;;;;;;15.70;13.48;;;3.60;99.90;;;;;;5020132;28;20049;-50
2022/04/27 02:09:08;;;;;;;16.13;13.82;;;3.60;99.90;;;;;;5036420;28;20044;-53
2022/04/27 02:11:42;;;;;;;16.08;13.25;;;3.70;99.90;;;;;;5042137;28;20484;-55
2022/04/27 02:14:10;;;;;;;16.15;13.68;;;3.70;99.90;;;;;;5023731;28;20805;-54
2022/04/27 02:16:38;;;;;;;18.38;14.23;;;3.80;99.90;;;;;;5022432;28;20107;-54
2022/04/27 02:19:08;;;;;;;15.77;13.15;;;3.90;99.90;;;;;;5024910;28;20053;-53
2022/04/27 02:21:34;;;;;;;16.95;13.55;;;4.00;99.90;;;;;;5032534;28;20859;-50
2022/04/27 02:24:00;;;;;;;17.63;13.70;;;4.10;99.90;;;;;;5008241;28;20090;-53
2022/04/27 02:26:26;;;;;;;16.77;12.18;;;4.10;99.90;;;;;;5038560;28;20124;-54
2022/04/27 02:28:55;;;;;;;14.25;12.23;;;4.20;99.90;;;;;;5021509;28;20077;-50
2022/04/27 02:31:21;;;;;;;14.95;12.70;;;4.30;99.90;;;;;;5018529;28;20133;-52
2022/04/27 02:33:47;;;;;;;14.30;12.30;;;4.30;99.90;;;;;;5030561;28;20132;-50
2022/04/27 02:36:13;;;;;;;13.85;12.32;;;4.20;99.90;;;;;;5041355;28;20452;-52
2022/04/27 02:38:40;;;;;;;14.13;11.93;;;4.20;99.90;;;;;;5022677;28;20091;-53
2022/04/27 02:41:10;;;;;;;11.73;10.55;;;4.30;99.90;;;;;;5038234;28;20098;-53
2022/04/27 02:43:37;;;;;;;13.82;11.15;;;4.30;99.90;;;;;;5038178;28;20921;-50
2022/04/27 02:46:05;;;;;;;12.82;11.55;;;4.30;99.90;;;;;;5037954;28;20056;-49
2022/04/27 02:48:31;;;;;;;12.98;11.48;;;4.30;99.90;;;;;;5019721;28;20064;-52
2022/04/27 02:53:43;;;;;;;15.02;12.05;;;4.30;99.90;;;;;;5041424;28;20041;-53
2022/04/27 02:56:10;;;;;;;15.88;13.88;;;4.30;99.90;;;;;;5036462;28;20053;-53
2022/04/27 02:58:37;;;;;;;16.60;13.88;;;4.30;99.90;;;;;;5032323;28;20045;-53
2022/04/27 03:01:04;;;;;;;15.88;13.93;;;4.30;99.90;;;;;;5040630;28;20099;-54
2022/04/27 03:03:30;;;;;;;15.25;13.32;;;4.30;99.90;;;;;;5040702;28;20052;-52
2022/04/27 03:05:57;;;;;;;14.73;13.23;;;4.20;99.90;;;;;;5022322;28;20689;-50
2022/04/27 03:08:25;;;;;;;14.43;12.93;;;4.20;99.90;;;;;;5024490;28;20532;-54
2022/04/27 03:10:53;;;;;;;18.05;12.88;;;4.20;99.90;;;;;;5008016;28;20057;-51
2022/04/27 03:13:25;;;;;;;16.10;13.50;;;4.20;99.90;;;;;;5056209;28;20056;-52
2022/04/27 03:16:00;;;;;;;14.25;12.63;;;4.30;99.90;;;;;;5039534;28;20144;-52
2022/04/27 03:18:26;;;;;;;17.50;13.77;;;4.30;99.90;;;;;;5037714;28;20068;-53
2022/04/27 03:20:53;;;;;;;15.20;13.07;;;4.30;99.90;;;;;;5007708;28;20045;-53
2022/04/27 03:23:19;;;;;;;17.08;12.10;;;4.30;99.90;;;;;;5007461;28;20153;-53
2022/04/27 03:25:52;;;;;;;15.73;14.10;;;4.30;99.90;;;;;;5040565;28;20132;-53
2022/04/27 03:28:18;;;;;;;16.95;13.75;;;4.30;99.90;;;;;;5006702;28;20399;-55
2022/04/27 03:30:44;;;;;;;15.05;13.10;;;4.30;99.90;;;;;;5034205;28;20053;-51
2022/04/27 03:33:28;;;;;;;15.15;12.65;;;4.30;99.90;;;;;;5041702;28;20049;-55
2022/04/27 03:35:54;;;;;;;17.05;12.98;;;4.40;99.90;;;;;;5024704;28;20134;-52
2022/04/27 03:38:22;;;;;;;15.70;13.82;;;4.40;99.90;;;;;;5022845;28;20056;-55
2022/04/27 03:40:48;;;;;;;15.32;13.05;;;4.40;99.90;;;;;;5025730;28;20072;-54
2022/04/27 03:43:16;;;;;;;17.15;13.70;;;4.40;99.90;;;;;;5041330;28;20050;-55
2022/04/27 03:45:43;;;;;;;17.13;13.30;;;4.40;99.90;;;;;;5023883;28;20087;-55
2022/04/27 03:48:10;;;;;;;15.63;12.32;;;4.50;99.90;;;;;;5020994;28;20053;-55
2022/04/27 03:50:36;;;;;;;17.08;12.48;;;4.50;99.90;;;;;;5043353;28;20122;-55
2022/04/27 03:53:02;;;;;;;15.90;13.38;;;4.50;99.90;;;;;;5043869;28;20071;-52
2022/04/27 03:55:33;;;;;;;16.60;13.43;;;4.60;99.90;;;;;;5059158;28;20757;-51
2022/04/27 03:58:03;;;;;;;16.30;13.32;;;4.60;99.90;;;;;;5043863;28;20641;-54
2022/04/27 04:00:32;;;;;;;15.70;13.45;;;4.60;99.90;;;;;;5044152;28;20048;-52
2022/04/27 04:03:11;;;;;;;19.17;13.38;;;4.60;99.90;;;;;;5011590;28;20679;-50
2022/04/27 04:05:39;;;;;;;15.43;13.15;;;4.50;99.90;;;;;;5034698;28;20053;-53
2022/04/27 04:08:06;;;;;;;15.20;13.07;;;4.60;99.90;;;;;;5018558;28;20056;-54
2022/04/27 04:10:32;;;;;;;15.93;13.07;;;4.60;99.90;;;;;;5040875;28;20190;-54
2022/04/27 04:12:58;;;;;;;18.90;14.02;;;4.60;99.90;;;;;;5043900;28;20070;-53
2022/04/27 04:15:45;;;;;;;16.92;13.45;;;4.70;99.90;;;;;;5023546;28;20071;-54
2022/04/27 04:18:46;;;;;;;17.97;13.47;;;4.70;99.90;;;;;;5013129;28;20052;-54
2022/04/27 04:21:36;;;;;;;15.05;13.32;;;4.70;99.90;;;;;;5024054;28;20051;-52
2022/04/27 04:24:05;;;;;;;16.60;14.90;;;4.80;99.90;;;;;;5021738;28;20535;-54
2022/04/27 04:29:22;;;;;;;15.60;13.95;;;4.80;99.90;;;;;;5019061;28;20385;-52
2022/04/27 04:31:49;;;;;;;17.35;14.80;;;4.80;99.90;;;;;;5027434;28;20044;-54
2022/04/27 04:34:25;;;;;;;15.88;13.93;;;4.90;99.90;;;;;;5046194;28;20400;-53
2022/04/27 04:36:51;;;;;;;17.08;14.52;;;4.90;99.90;;;;;;5022440;28;20050;-54
2022/04/27 04:39:18;;;;;;;18.45;13.88;;;4.90;99.90;;;;;;5043942;28;20230;-54
2022/04/27 04:41:46;;;;;;;16.40;14.15;;;5.00;99.90;;;;;;5042156;28;20048;-54
2022/04/27 04:44:14;;;;;;;17.85;15.23;;;5.00;99.90;;;;;;5018783;28;20048;-53
2022/04/27 04:47:02;;;;;;;16.80;14.88;;;5.10;99.90;;;;;;5005167;28;20068;-53
2022/04/27 04:49:39;;;;;;;19.75;14.70;;;5.10;99.90;;;;;;5044631;28;20151;-55
2022/04/27 04:52:35;;;;;;;18.65;14.65;;;5.20;99.90;;;;;;4959725;28;20106;-54
2022/04/27 04:55:19;;;;;;;15.82;14.20;;;5.20;99.90;;;;;;5043713;28;20049;-53
2022/04/27 04:58:05;;;;;;;18.58;15.02;;;5.30;99.90;;;;;;5028896;28;20871;-53
2022/04/27 05:00:49;;;;;;;;;;;5.30;99.90;;;;;;5025059;28;20049;-53
2022/04/27 05:03:21;;;;;;;19.10;14.88;;;5.30;99.90;;;;;;5010432;28;19978;-52
2022/04/27 05:05:47;;;;;;;19.95;15.45;;;5.40;99.90;;;;;;5026087;28;20052;-52
2022/04/27 05:08:43;;;;;;;19.52;14.95;;;5.50;99.90;;;;;;4960435;28;20489;-55
2022/04/27 05:11:35;;;;;;;18.05;13.65;;;5.60;99.90;;;;;;5038122;28;20082;-53
2022/04/27 05:14:23;;;;;;;17.58;14.43;;;5.60;99.90;;;;;;5032845;28;20098;-54
2022/04/27 05:17:03;;;;;;;16.80;14.90;;;5.70;99.90;;;;;;5042036;28;20080;-51
2022/04/27 05:19:55;;;;;;;15.98;14.20;;;5.70;99.90;;;;;;5028321;28;20049;-54
2022/04/27 05:22:44;;;;;;;16.67;13.50;;;5.70;99.90;;;;;;4995550;28;20136;-55
2022/04/27 05:25:34;;;;;;;16.38;14.35;;;5.90;99.90;;;;;;5026684;28;20060;-55
2022/04/27 05:28:19;;;;;;;16.63;12.80;;;6.00;99.90;;;;;;5033202;28;20048;-54
2022/04/27 05:34:05;;;;;;;17.38;13.48;;;6.20;99.90;;;;;;5038637;28;20132;-53
2022/04/27 05:36:44;;;;;;;17.45;13.75;;;6.30;99.90;;;;;;5020455;28;20051;-54
2022/04/27 05:39:31;;;;;;;17.95;13.90;;;6.30;99.90;;;;;;5030841;28;20052;-55
2022/04/27 05:42:18;;;;;;;15.52;12.88;;;6.40;99.90;;;;;;5034323;28;20132;-51
2022/04/27 05:45:19;;;;;;;16.00;13.18;;;6.50;99.90;;;;;;5046676;28;20053;-54
2022/04/27 05:48:08;;;;;;;15.00;12.90;;;6.50;99.90;;;;;;5029503;28;20099;-54
2022/04/27 05:50:58;;;;;;;15.13;12.63;;;6.60;99.90;;;;;;5013182;28;20057;-53
2022/04/27 05:53:42;;;;;;;16.40;12.93;;;6.60;99.90;;;;;;5035239;28;20053;-54
2022/04/27 05:56:27;;;;;;;16.33;12.63;;;6.70;99.90;;;;;;5018859;28;20483;-53
2022/04/27 05:59:06;;;;;;;18.77;12.98;;;6.70;99.90;;;;;;4998364;28;20045;-53
2022/04/27 06:02:00;;;;;;;14.63;12.70;;;6.80;99.90;;;;;;5018377;28;20098;-53
2022/04/27 06:04:27;;;;;;;17.17;13.55;;;6.80;99.90;;;;;;5004844;28;20046;-53
2022/04/27 06:06:53;;;;;;;14.82;12.57;;;6.90;99.90;;;;;;5032484;28;20041;-52
2022/04/27 06:09:21;;;;;;;15.07;12.20;;;7.00;99.90;;;;;;5037372;28;20060;-55
2022/04/27 06:12:07;;;;;;;18.45;12.95;;;7.00;99.90;;;;;;5040975;28;20412;-53
2022/04/27 06:14:42;;;;;;;17.00;13.05;;;7.10;99.90;;;;;;5037504;28;20045;-54
2022/04/27 06:17:38;;;;;;;14.65;11.63;;;7.20;99.90;;;;;;5026263;28;20764;-54
2022/04/27 06:20:04;;;;;;;15.40;11.15;;;7.20;99.90;;;;;;5022682;28;20087;-49
2022/04/27 06:22:31;;;;;;;16.38;12.40;;;7.30;99.90;;;;;;5005823;28;20067;-55
2022/04/27 06:24:57;;;;;;;13.75;11.25;;;7.30;99.90;;;;;;5011365;28;20081;-54
2022/04/27 06:27:41;;;;;;;15.27;11.05;;;7.40;99.90;;;;;;5027124;28;20091;-53
2022/04/27 06:30:09;;;;;;;15.43;11.95;;;7.40;99.90;;;;;;5021618;28;20131;-56
2022/04/27 06:32:37;;;;;;;14.10;11.57;;;7.50;99.90;;;;;;5018281;28;20273;-55
2022/04/27 06:35:06;;;;;;;14.70;11.45;;;7.60;99.90;;;;;;5027790;28;20049;-54
2022/04/27 06:37:34;;;;;;;14.07;10.60;;;7.60;99.90;;;;;;5056608;28;20114;-55
2022/04/27 06:40:00;;;;;;;16.88;10.65;;;7.70;99.90;;;;;;5023794;28;20456;-55
2022/04/27 06:42:27;;;;;;;13.63;8.77;;;7.80;99.90;;;;;;5008005;28;20788;-53
2022/04/27 06:45:12;;;;;;;13.25;9.75;;;7.80;99.90;;;;;;5037121;28;20057;-56
2022/04/27 06:47:58;;;;;;;13.57;9.05;;;7.90;99.90;;;;;;5039744;28;20081;-52
2022/04/27 06:50:43;;;;;;;12.70;8.45;;;8.00;99.90;;;;;;5028399;28;20045;-54
2022/04/27 06:53:28;;;;;;;12.32;9.48;;;8.10;99.90;;;;;;5034518;28;20483;-53
2022/04/27 06:56:20;;;;;;;12.82;8.95;;;8.20;99.90;;;;;;5004576;28;20049;-50
2022/04/27 06:59:07;;;;;;;12.82;8.90;;;8.30;99.90;;;;;;5026955;28;20785;-55
2022/04/27 07:01:37;;;;;;;11.30;8.02;;;8.30;99.90;;;;;;5015940;28;20156;-54
2022/04/27 07:04:09;;;;;;;10.40;7.93;;;8.40;99.90;;;;;;5022976;28;20057;-52
2022/04/27 07:06:35;;;;;;;11.18;8.73;;;8.50;99.90;;;;;;5037976;28;20404;-53
2022/04/27 07:09:03;;;;;;;12.90;8.50;;;8.50;99.90;;;;;;5034219;28;20044;-54
2022/04/27 07:11:29;;;;;;;10.45;7.18;;;8.60;99.90;;;;;;5040324;28;20056;-55
2022/04/27 07:13:55;;;;;;;11.90;7.97;;;8.70;99.90;;;;;;5028054;28;20049;-55
2022/04/27 07:16:22;;;;;;;10.57;7.97;;;8.80;99.90;;;;;;5033977;28;20180;-54
2022/04/27 07:18:50;;;;;;;9.02;7.47;;;8.90;99.90;;;;;;5043012;28;20479;-54
2022/04/27 07:21:16;;;;;;;12.02;8.10;;;9.00;99.90;;;;;;5006003;28;20061;-55
2022/04/27 07:23:42;;;;;;;10.15;7.20;;;9.00;99.90;;;;;;5044936;28;20063;-54
2022/04/27 07:26:08;;;;;;;13.98;8.15;;;9.10;99.90;;;;;;5040510;28;20579;-53
2022/04/27 07:28:36;;;;;;;16.10;7.65;;;9.20;99.90;;;;;;5026479;28;20455;-53
2022/04/27 07:31:03;;;;;;;9.48;6.82;;;9.30;99.90;;;;;;5031281;28;20053;-53
2022/04/27 07:33:29;;;;;;;12.90;7.43;;;9.40;99.90;;;;;;5032754;28;20101;-53
2022/04/27 07:35:55;;;;;;;10.50;7.38;;;9.50;99.90;;;;;;5036183;28;20041;-53
2022/04/27 07:38:21;;;;;;;8.07;6.88;;;9.60;99.90;;;;;;4997453;28;20052;-55
2022/04/27 07:40:47;;;;;;;9.45;6.70;;;9.70;99.90;;;;;;5018901;28;20041;-54
2022/04/27 07:43:14;;;;;;;8.48;6.22;;;9.70;99.90;;;;;;5028280;28;20133;-52
2022/04/27 07:45:44;;;;;;;10.50;6.25;;;9.80;99.90;;;;;;5031458;28;20682;-54
2022/04/27 07:48:13;;;;;;;5.93;5.28;;;9.90;99.90;;;;;;5031871;28;20061;-55
2022/04/27 07:50:40;;;;;;;7.82;5.05;;;10.00;99.90;;;;;;5035210;28;20041;-55
2022/04/27 07:53:06;;;;;;;7.28;4.85;;;10.10;99.90;;;;;;5027859;28;20088;-52
2022/04/27 07:55:32;;;;;;;6.47;4.43;;;10.20;99.90;;;;;;5037327;28;20657;-55
2022/04/27 07:57:58;;;;;;;7.72;4.13;;;10.30;99.90;;;;;;5025495;28;20087;-53
2022/04/27 08:00:25;;;;;;;7.18;4.00;;;10.30;99.90;;;;;;5028495;28;20045;-52
2022/04/27 08:02:51;;;;;;;6.35;4.35;;;10.40;99.90;;;;;;5044228;28;20049;-52
2022/04/27 08:05:17;;;;;;;9.70;4.22;;;10.60;99.90;;;;;;5030452;28;20053;-54
2022/04/27 08:07:45;;;;;;;6.28;3.05;;;10.70;99.90;;;;;;5027675;28;20073;-53
2022/04/27 08:10:17;;;;;;;6.68;3.80;;;10.60;99.90;;;;;;5030281;28;20058;-54
2022/04/27 08:12:46;;;;;;;6.68;3.58;;;10.80;99.90;;;;;;5041550;28;20045;-54
2022/04/27 08:15:14;;;;;;;6.47;2.85;;;10.80;99.90;;;;;;5043149;28;20049;-54
2022/04/27 08:18:03;;;;;;;4.47;2.45;;;10.90;99.90;;;;;;5026032;28;20055;-53
2022/04/27 08:23:23;;;;;;;5.05;2.03;;;11.10;99.90;;;;;;5007826;28;20049;-55
2022/04/27 08:25:50;;;;;;;5.60;2.00;;;11.20;99.90;;;;;;5025641;28;20053;-49
2022/04/27 08:28:19;;;;;;;3.53;1.98;;;11.30;99.90;;;;;;5027513;28;20053;-55
2022/04/27 08:30:46;;;;;;;3.72;1.60;;;11.40;99.90;;;;;;5008230;28;20045;-52
2022/04/27 08:33:13;;;;;;;5.88;1.70;;;11.50;99.90;;;;;;5024943;28;20049;-55
2022/04/27 08:35:40;;;;;;;4.03;1.90;;;11.50;99.90;;;;;;5026073;28;20045;-55
2022/04/27 08:38:07;;;;;;;5.50;1.88;;;11.40;99.90;;;;;;5043777;28;20056;-55
2022/04/27 08:40:44;;;;;;;7.13;2.00;;;11.60;99.90;;;;;;5036744;28;20057;-52
2022/04/27 08:43:12;;;;;;;4.82;1.95;;;11.60;99.90;;;;;;5052908;28;20142;-53
2022/04/27 08:45:43;;;;;;;5.15;2.58;;;11.70;99.90;;;;;;5037956;28;20133;-55
2022/04/27 08:48:10;;;;;;;5.47;2.20;;;11.70;99.90;;;;;;5035971;28;20054;-53
2022/04/27 08:50:36;;;;;;;8.60;4.57;;;11.80;99.90;;;;;;5017208;28;20084;-52
2022/04/27 08:53:03;;;;;;;10.32;3.30;;;11.90;99.90;;;;;;5034064;28;20057;-54
2022/04/27 08:55:30;;;;;;;4.40;1.92;;;12.00;99.90;;;;;;5030257;28;20045;-54
2022/04/27 08:58:13;;;;;;;9.68;2.10;;;12.10;99.90;;;;;;5032120;28;20045;-55
2022/04/27 09:00:41;;;;;;;11.32;2.08;;;12.10;99.90;;;;;;5018904;28;20057;-54
2022/04/27 09:03:27;;;;;;;6.85;2.63;;;12.10;99.90;;;;;;5016075;28;20409;-53
2022/04/27 09:06:12;;;;;;;6.40;4.00;;;12.00;99.90;;;;;;5031936;28;20049;-55
2022/04/27 09:08:49;;;;;;;5.53;2.08;;;12.10;99.90;;;;;;5054135;28;20087;-55
2022/04/27 09:11:20;;;;;;;6.50;2.15;;;12.10;99.90;;;;;;5034588;28;20083;-53
2022/04/27 09:13:56;;;;;;;5.85;1.80;;;12.20;99.90;;;;;;5014384;28;20148;-52
2022/04/27 09:16:25;;;;;;;3.47;1.70;;;12.30;99.90;;;;;;5038844;28;20080;-55
2022/04/27 09:21:55;;;;;;;7.28;3.15;;;12.60;99.90;;;;;;5030473;28;20067;-50
2022/04/27 09:24:22;;;;;;;11.27;6.90;;;12.60;97.90;;;;;;5030869;28;20060;-51
2022/04/27 09:26:59;;;;;;;7.47;4.10;;;12.60;98.70;;;;;;5039024;28;20046;-52
2022/04/27 09:29:26;;;;;;;6.40;1.88;;;12.80;94.70;;;;;;5033756;28;20045;-51
2022/04/27 09:31:57;;;;;;;7.78;2.13;;;12.90;95.20;;;;;;5050716;28;20060;-55
2022/04/27 09:34:29;;;;;;;5.32;1.80;;;13.00;88.10;;;;;;5038504;28;20546;-55
2022/04/27 09:37:14;;;;;;;4.65;1.70;;;13.00;84.00;;;;;;5025342;28;20041;-55
2022/04/27 09:39:41;;;;;;;5.65;1.50;;;13.10;77.60;;;;;;5037305;28;20874;-55
2022/04/27 09:42:10;;;;;;;5.78;2.55;;;13.10;78.30;;;;;;5038534;28;21145;-55
2022/04/27 09:44:39;;;;;;;4.32;1.77;;;13.20;74.90;;;;;;5031257;28;20057;-54
2022/04/27 09:47:07;;;;;;;4.68;2.20;;;13.40;75.30;;;;;;5025768;28;20563;-55
2022/04/27 09:49:38;;;;;;;5.72;1.95;;;13.50;73.70;;;;;;5028763;28;20390;-55
2022/04/27 09:52:06;;;;;;;7.47;1.90;;;13.30;71.20;;;;;;5024184;28;20156;-51
2022/04/27 09:54:36;;;;;;;7.35;2.25;;;13.60;69.80;;;;;;5034412;28;20132;-52
2022/04/27 09:57:09;;;;;;;5.28;1.90;;;13.60;70.90;;;;;;5024904;28;20060;-55
2022/04/27 09:59:37;;;;;;;13.90;2.30;;;13.60;66.40;;;;;;5009723;28;20669;-55
2022/04/27 10:02:08;;;;;;;5.15;1.85;;;13.70;66.20;;;;;;5031612;28;20456;-55
2022/04/27 10:04:36;;;;;;;4.72;1.80;;;14.00;65.30;;;;;;5014348;28;20041;-54
2022/04/27 10:07:04;;;;;;;5.38;1.58;;;13.90;64.30;;;;;;5013000;28;20576;-55
2022/04/27 10:09:31;;;;;;;4.70;1.70;;;13.70;64.80;;;;;;5025139;28;20122;-54
2022/04/27 10:12:01;;;;;;;4.53;1.77;;;13.70;63.70;;;;;;5024072;28;20408;-55
2022/04/27 10:14:28;;;;;;;4.47;1.90;;;13.60;62.00;;;;;;5026613;28;20893;-49
2022/04/27 10:16:55;;;;;;;12.77;2.30;;;13.60;63.30;;;;;;5023275;28;20049;-51
2022/04/27 10:19:21;;;;;;;3.10;1.80;;;13.80;63.00;;;;;;5031892;28;20581;-55
2022/04/27 10:22:00;;;;;;;7.68;2.00;;;13.80;63.20;;;;;;5032116;28;20056;-55
2022/04/27 10:24:37;;;;;;;5.60;2.53;;;13.70;61.60;;;;;;5031790;28;20071;-49
2022/04/27 10:27:20;;;;;;;5.95;1.73;;;14.00;59.80;;;;;;5018757;28;20124;-55
2022/04/27 10:29:51;;;;;;;5.32;1.70;;;13.80;59.90;;;;;;5024327;28;20052;-56
2022/04/27 10:32:44;;;;;;;6.68;2.22;;;13.60;60.60;;;;;;5030364;28;20053;-51
2022/04/27 10:35:14;;;;;;;6.38;1.73;;;13.30;61.00;;;;;;5023572;28;20136;-52
2022/04/27 10:37:47;;;;;;;5.45;2.47;;;13.20;59.90;;;;;;5028681;28;20048;-53
2022/04/27 10:40:38;;;;;;;7.90;2.63;;;13.40;62.30;;;;;;5034294;28;20057;-52
2022/04/27 10:43:24;;;;;;;5.43;1.98;;;13.50;60.50;;;;;;5024571;28;20607;-55
2022/04/27 10:45:50;;;;;;;6.97;2.40;;;13.20;59.10;;;;;;5027368;28;20050;-56
2022/04/27 10:48:20;;;;;;;11.23;4.53;;;13.40;61.30;;;;;;5038954;28;20098;-56
2022/04/27 10:51:04;;;;;;;7.95;2.60;;;13.50;62.50;;;;;;5043268;28;20045;-56
2022/04/27 10:53:39;;;;;;;7.20;2.28;;;13.70;62.30;;;;;;5040101;28;20124;-55
2022/04/27 10:56:22;;;;;;;5.47;2.35;;;13.90;61.90;;;;;;5031675;28;20045;-56
2022/04/27 10:58:49;;;;;;;7.38;2.15;;;14.20;60.40;;;;;;5034381;28;20091;-52
2022/04/27 11:01:22;;;;;;;7.57;2.05;;;14.10;59.90;;;;;;5044846;28;20055;-53
2022/04/27 11:03:58;;;;;;;5.30;2.17;;;14.00;57.40;;;;;;5033427;28;20578;-52
2022/04/27 11:06:24;;;;;;;7.50;2.45;;;14.00;58.90;;;;;;5025535;28;20128;-51
2022/04/27 11:09:08;;;;;;;6.38;2.65;;;13.90;59.70;;;;;;5011543;28;20049;-49
2022/04/27 11:11:53;;;;;;;9.20;2.20;;;14.10;59.60;;;;;;5042591;28;20767;-56
2022/04/27 11:14:31;;;;;;;5.78;2.30;;;14.10;57.20;;;;;;5024889;28;20801;-56
2022/04/27 11:16:57;;;;;;;12.52;4.55;;;14.00;56.70;;;;;;5017314;28;20136;-54
2022/04/27 11:19:37;;;;;;;9.55;2.38;;;14.30;60.00;;;;;;5038295;28;20059;-56
2022/04/27 11:22:14;;;;;;;7.80;2.58;;;14.50;55.30;;;;;;5040715;28;20498;-58
2022/04/27 11:24:42;;;;;;;6.45;2.28;;;14.60;57.50;;;;;;5041037;28;20841;-56
2022/04/27 11:27:09;;;;;;;6.30;2.22;;;14.60;57.00;;;;;;5037510;28;20053;-57
2022/04/27 11:29:37;;;;;;;6.03;2.50;;;14.50;57.10;;;;;;5040617;28;20041;-57
2022/04/27 11:32:07;;;;;;;6.88;2.33;;;14.70;58.10;;;;;;5015588;28;20053;-57
2022/04/27 11:34:33;;;;;;;8.98;2.40;;;14.40;57.40;;;;;;5036385;28;20076;-57
2022/04/27 11:37:15;;;;;;;5.13;1.95;;;14.70;58.00;;;;;;5043008;28;20055;-57
2022/04/27 11:39:41;;;;;;;6.90;2.13;;;14.90;56.50;;;;;;5026217;28;20132;-57
2022/04/27 11:42:10;;;;;;;10.65;3.67;;;14.70;56.70;;;;;;5025240;28;20049;-57
2022/04/27 11:44:36;;;;;;;5.20;2.40;;;14.90;56.90;;;;;;5039582;28;20053;-57
2022/04/27 11:47:03;;;;;;;6.53;2.53;;;14.90;56.00;;;;;;5035737;28;20056;-48
2022/04/27 11:49:29;;;;;;;17.88;4.00;;;14.70;53.60;;;;;;5035507;28;20046;-48
2022/04/27 11:51:55;;;;;;;17.15;5.22;;;14.90;53.90;;;;;;5041735;28;20438;-53
2022/04/27 11:54:30;;;;;;;9.38;5.47;;;15.20;55.90;;;;;;5028795;28;20083;-53
2022/04/27 11:56:59;;;;;;;7.47;2.88;;;15.30;54.00;;;;;;5025930;28;20231;-52
2022/04/27 11:59:41;;;;;;;6.93;2.83;;;15.60;54.10;;;;;;5031419;28;20594;-51
2022/04/27 12:02:09;;;;;;;5.63;2.20;;;15.60;52.20;;;;;;5026332;28;20991;-49
2022/04/27 12:04:41;;;;;;;5.50;2.65;;;15.80;52.70;;;;;;5029258;28;20049;-52
2022/04/27 12:07:18;;;;;;;9.02;2.88;;;15.90;51.50;;;;;;5046096;28;20049;-56
2022/04/27 12:09:56;;;;;;;5.70;2.85;;;15.80;51.50;;;;;;5038635;28;20049;-58
2022/04/27 12:12:24;;;;;;;7.55;4.38;;;16.00;50.40;;;;;;5045511;28;20083;-58
2022/04/27 12:14:51;;;;;;;9.93;5.32;;;15.60;51.00;;;;;;5027288;28;20049;-48
2022/04/27 12:17:47;;;;;;;6.70;3.15;;;15.60;51.70;;;;;;4994495;28;20074;-51
2022/04/27 12:20:27;;;;;;;9.98;4.63;;;15.80;50.30;;;;;;5037596;28;20061;-59
2022/04/27 12:23:31;;;;;;;15.07;9.43;;;16.00;51.20;;;;;;5031513;28;20053;-58
2022/04/27 12:26:01;;;;;;;8.25;3.92;;;16.10;49.90;;;;;;5028552;28;20056;-58
2022/04/27 12:28:29;;;;;;;6.45;2.90;;;16.70;50.90;;;;;;5029483;28;20131;-56
2022/04/27 12:30:57;;;;;;;7.53;2.92;;;16.90;50.30;;;;;;5038208;28;20051;-55
2022/04/27 12:33:30;;;;;;;15.10;6.43;;;16.60;50.70;;;;;;5030378;28;20064;-55
2022/04/27 12:38:58;;;;;;;17.60;3.63;;;16.20;50.50;;;;;;5055032;28;20055;-53
2022/04/27 12:41:42;;;;;;;6.70;2.85;;;16.20;52.00;;;;;;5031471;28;20041;-47
2022/04/27 12:44:19;;;;;;;6.35;3.13;;;16.00;53.30;;;;;;5025877;28;20053;-51
2022/04/27 12:46:59;;;;;;;8.75;3.28;;;15.60;52.90;;;;;;5026466;28;20073;-54
2022/04/27 12:49:30;;;;;;;14.43;3.00;;;15.50;54.10;;;;;;5026156;28;20542;-54
2022/04/27 12:52:26;;;;;;;9.40;2.88;;;15.50;55.90;;;;;;5033218;28;20396;-51
2022/04/27 12:55:10;;;;;;;6.82;3.10;;;15.60;55.80;;;;;;5043584;28;20504;-50
2022/04/27 12:57:54;;;;;;;8.57;4.20;;;15.30;55.90;;;;;;5020300;28;20605;-47
2022/04/27 13:00:23;;;;;;;6.05;2.78;;;15.40;55.20;;;;;;5045157;28;20056;-47
2022/04/27 13:02:49;;;;;;;7.20;3.47;;;15.30;54.60;;;;;;5015881;28;20489;-46
2022/04/27 13:05:15;;;;;;;4.43;2.50;;;15.30;54.90;;;;;;5024772;28;20669;-47
2022/04/27 13:07:42;;;;;;;7.05;2.90;;;15.40;53.50;;;;;;5031290;28;20044;-47
2022/04/27 13:12:54;;;;;;;6.10;2.35;;;15.70;52.70;;;;;;5029642;28;20080;-49
2022/04/27 13:15:21;;;;;;;6.68;2.97;;;15.60;52.20;;;;;;5022006;28;20055;-49
2022/04/27 13:17:48;;;;;;;7.70;3.33;;;15.40;52.90;;;;;;5032097;28;20096;-51
2022/04/27 13:20:14;;;;;;;7.93;3.25;;;15.30;52.30;;;;;;5035822;28;20111;-48
2022/04/27 13:22:41;;;;;;;6.78;2.97;;;15.30;52.70;;;;;;5040369;28;20137;-47
2022/04/27 13:25:07;;;;;;;6.72;3.00;;;15.20;53.60;;;;;;5027450;28;20533;-46
2022/04/27 13:27:33;;;;;;;6.13;2.53;;;15.20;54.60;;;;;;5034493;28;20049;-48
2022/04/27 13:30:00;;;;;;;6.13;2.60;;;15.00;54.20;;;;;;5037336;28;20051;-49